sensor_id;sensor_type;location;lat;lon;timestamp;temperature;humidity
21823;DHT22;11074;48.596;9.238;2023-11-19T00:00:43;8.00;99.90
21823;DHT22;11074;48.596;9.238;2023-11-19T00:03:08;8.00;99.90
21823;DHT22;11074;48.596;9.238;2023-11-19T00:05:36;8.00;99.90
21823;DHT22;11074;48.596;9.238;2023-11-19T00:08:01;8.00;99.90
21823;DHT22;11074;48.596;9.238;2023-11-19T00:10:27;8.00;99.90
21823;DHT22;11074;48.596;9.238;2023-11-19T00:12:53;8.00;99.90
21823;DHT22;11074;48.596;9.238;2023-11-19T00:15:18;8.00;99.90
21823;DHT22;11074;48.596;9.238;2023-11-19T00:17:45;8.10;99.90
21823;DHT22;11074;48.596;9.238;2023-11-19T00:22:40;8.10;99.90
21823;DHT22;11074;48.596;9.238;2023-11-19T00:25:07;8.10;99.90
21823;DHT22;11074;48.596;9.238;2023-11-19T00:27:33;8.00;99.90
21823;DHT22;11074;48.596;9.238;2023-11-19T00:29:59;8.00;99.90
21823;DHT22;11074;48.596;9.238;2023-11-19T00:32:25;8.00;99.90
21823;DHT22;11074;48.596;9.238;2023-11-19T00:34:51;8.10;99.90
21823;DHT22;11074;48.596;9.238;2023-11-19T00:37:17;8.10;99.90
21823;DHT22;11074;48.596;9.238;2023-11-19T00:39:43;8.10;99.90
21823;DHT22;11074;48.596;9.238;2023-11-19T00:42:09;8.10;99.90
21823;DHT22;11074;48.596;9.238;2023-11-19T00:44:36;8.10;99.90
21823;DHT22;11074;48.596;9.238;2023-11-19T00:47:02;8.10;99.90
21823;DHT22;11074;48.596;9.238;2023-11-19T00:49:28;8.20;99.90
21823;DHT22;11074;48.596;9.238;2023-11-19T00:51:53;8.20;99.90
21823;DHT22;11074;48.596;9.238;2023-11-19T00:54:19;8.20;99.90
21823;DHT22;11074;48.596;9.238;2023-11-19T00:56:45;8.20;99.90
21823;DHT22;11074;48.596;9.238;2023-11-19T00:59:11;8.20;99.90
21823;DHT22;11074;48.596;9.238;2023-11-19T01:01:37;8.20;99.90
21823;DHT22;11074;48.596;9.238;2023-11-19T01:04:03;8.20;99.90
21823;DHT22;11074;48.596;9.238;2023-11-19T01:06:32;8.20;99.90
21823;DHT22;11074;48.596;9.238;2023-11-19T01:08:58;8.20;99.90
21823;DHT22;11074;48.596;9.238;2023-11-19T01:11:24;8.20;99.90
21823;DHT22;11074;48.596;9.238;2023-11-19T01:13:52;8.30;99.90
21823;DHT22;11074;48.596;9.238;2023-11-19T01:16:18;8.30;99.90
21823;DHT22;11074;48.596;9.238;2023-11-19T01:18:47;8.30;99.90
21823;DHT22;11074;48.596;9.238;2023-11-19T01:21:14;8.30;99.90
21823;DHT22;11074;48.596;9.238;2023-11-19T01:23:40;8.30;99.90
21823;DHT22;11074;48.596;9.238;2023-11-19T01:26:09;8.30;99.90
21823;DHT22;11074;48.596;9.238;2023-11-19T01:28:36;8.30;99.90
21823;DHT22;11074;48.596;9.238;2023-11-19T01:31:02;8.30;99.90
21823;DHT22;11074;48.596;9.238;2023-11-19T01:33:29;8.40;99.90
21823;DHT22;11074;48.596;9.238;2023-11-19T01:35:55;8.40;99.90
21823;DHT22;11074;48.596;9.238;2023-11-19T01:38:21;8.40;99.90
21823;DHT22;11074;48.596;9.238;2023-11-19T01:40:47;8.40;99.90
21823;DHT22;11074;48.596;9.238;2023-11-19T01:43:19;8.40;99.90
21823;DHT22;11074;48.596;9.238;2023-11-19T01:45:56;8.50;99.90
21823;DHT22;11074;48.596;9.238;2023-11-19T01:48:22;8.50;99.90
21823;DHT22;11074;48.596;9.238;2023-11-19T01:50:48;8.60;99.90
21823;DHT22;11074;48.596;9.238;2023-11-19T01:53:13;8.60;99.90
21823;DHT22;11074;48.596;9.238;2023-11-19T01:55:39;8.70;99.90
21823;DHT22;11074;48.596;9.238;2023-11-19T01:58:06;8.70;99.90
21823;DHT22;11074;48.596;9.238;2023-11-19T02:00:33;8.70;99.90
21823;DHT22;11074;48.596;9.238;2023-11-19T02:02:58;8.70;99.90
21823;DHT22;11074;48.596;9.238;2023-11-19T02:05:25;8.70;99.90
21823;DHT22;11074;48.596;9.238;2023-11-19T02:07:50;8.70;99.90
21823;DHT22;11074;48.596;9.238;2023-11-19T02:10:16;8.80;99.90
21823;DHT22;11074;48.596;9.238;2023-11-19T02:12:44;8.80;99.90
21823;DHT22;11074;48.596;9.238;2023-11-19T02:15:11;8.80;99.90
21823;DHT22;11074;48.596;9.238;2023-11-19T02:17:37;8.80;99.90
21823;DHT22;11074;48.596;9.238;2023-11-19T02:20:06;8.80;99.90
21823;DHT22;11074;48.596;9.238;2023-11-19T02:22:37;8.80;99.90
21823;DHT22;11074;48.596;9.238;2023-11-19T02:25:17;8.80;99.90
21823;DHT22;11074;48.596;9.238;2023-11-19T02:27:57;8.80;99.90
21823;DHT22;11074;48.596;9.238;2023-11-19T02:30:25;8.80;99.90
21823;DHT22;11074;48.596;9.238;2023-11-19T02:32:55;8.80;99.90
21823;DHT22;11074;48.596;9.238;2023-11-19T02:35:23;8.80;99.90
21823;DHT22;11074;48.596;9.238;2023-11-19T02:37:49;8.80;99.90
21823;DHT22;11074;48.596;9.238;2023-11-19T02:40:15;8.80;99.90
21823;DHT22;11074;48.596;9.238;2023-11-19T02:42:42;8.90;99.90
21823;DHT22;11074;48.596;9.238;2023-11-19T02:45:09;8.90;99.90
21823;DHT22;11074;48.596;9.238;2023-11-19T02:47:40;8.90;99.90
21823;DHT22;11074;48.596;9.238;2023-11-19T02:50:11;8.90;99.90
21823;DHT22;11074;48.596;9.238;2023-11-19T02:52:40;8.90;99.90
21823;DHT22;11074;48.596;9.238;2023-11-19T02:55:08;8.90;99.90
21823;DHT22;11074;48.596;9.238;2023-11-19T02:57:35;9.00;99.90
21823;DHT22;11074;48.596;9.238;2023-11-19T03:00:02;8.90;99.90
21823;DHT22;11074;48.596;9.238;2023-11-19T03:02:40;9.00;99.90
21823;DHT22;11074;48.596;9.238;2023-11-19T03:05:15;9.00;99.90
21823;DHT22;11074;48.596;9.238;2023-11-19T03:07:42;9.10;99.90
21823;DHT22;11074;48.596;9.238;2023-11-19T03:10:11;9.10;99.90
21823;DHT22;11074;48.596;9.238;2023-11-19T03:12:42;9.10;99.90
21823;DHT22;11074;48.596;9.238;2023-11-19T03:15:09;9.10;99.90
21823;DHT22;11074;48.596;9.238;2023-11-19T03:17:42;9.20;99.90
21823;DHT22;11074;48.596;9.238;2023-11-19T03:20:10;9.10;99.90
21823;DHT22;11074;48.596;9.238;2023-11-19T03:22:41;9.20;99.90
21823;DHT22;11074;48.596;9.238;2023-11-19T03:25:08;9.20;99.90
21823;DHT22;11074;48.596;9.238;2023-11-19T03:27:37;9.20;99.90
21823;DHT22;11074;48.596;9.238;2023-11-19T03:30:09;9.20;99.90
21823;DHT22;11074;48.596;9.238;2023-11-19T03:32:35;9.20;99.90
21823;DHT22;11074;48.596;9.238;2023-11-19T03:35:02;9.20;99.90
21823;DHT22;11074;48.596;9.238;2023-11-19T03:37:30;9.30;99.90
21823;DHT22;11074;48.596;9.238;2023-11-19T03:39:57;9.30;99.90
21823;DHT22;11074;48.596;9.238;2023-11-19T03:42:28;9.30;99.90
21823;DHT22;11074;48.596;9.238;2023-11-19T03:44:56;9.30;99.90
21823;DHT22;11074;48.596;9.238;2023-11-19T03:47:22;9.30;99.90
21823;DHT22;11074;48.596;9.238;2023-11-19T03:49:48;9.30;99.90
21823;DHT22;11074;48.596;9.238;2023-11-19T03:52:15;9.40;99.90
21823;DHT22;11074;48.596;9.238;2023-11-19T03:54:41;9.40;99.90
21823;DHT22;11074;48.596;9.238;2023-11-19T03:57:07;9.40;99.90
21823;DHT22;11074;48.596;9.238;2023-11-19T03:59:32;9.40;99.90
21823;DHT22;11074;48.596;9.238;2023-11-19T04:01:59;9.40;99.90
21823;DHT22;11074;48.596;9.238;2023-11-19T04:04:26;9.50;99.90
21823;DHT22;11074;48.596;9.238;2023-11-19T04:06:53;9.50;99.90
21823;DHT22;11074;48.596;9.238;2023-11-19T04:09:19;9.40;99.90
21823;DHT22;11074;48.596;9.238;2023-11-19T04:11:44;9.40;99.90
21823;DHT22;11074;48.596;9.238;2023-11-19T04:14:12;9.50;99.90
21823;DHT22;11074;48.596;9.238;2023-11-19T04:16:39;9.50;99.90
21823;DHT22;11074;48.596;9.238;2023-11-19T04:19:05;9.50;99.90
21823;DHT22;11074;48.596;9.238;2023-11-19T04:21:32;9.50;99.90
21823;DHT22;11074;48.596;9.238;2023-11-19T04:23:58;9.50;99.90
21823;DHT22;11074;48.596;9.238;2023-11-19T04:26:24;9.60;99.90
21823;DHT22;11074;48.596;9.238;2023-11-19T04:28:50;9.60;99.90
21823;DHT22;11074;48.596;9.238;2023-11-19T04:31:16;9.60;99.90
21823;DHT22;11074;48.596;9.238;2023-11-19T04:33:42;9.60;99.90
21823;DHT22;11074;48.596;9.238;2023-11-19T04:36:09;9.60;99.90
21823;DHT22;11074;48.596;9.238;2023-11-19T04:38:36;9.70;99.90
21823;DHT22;11074;48.596;9.238;2023-11-19T04:41:04;9.70;99.90
21823;DHT22;11074;48.596;9.238;2023-11-19T04:43:31;9.70;99.90
21823;DHT22;11074;48.596;9.238;2023-11-19T04:45:57;9.70;99.90
21823;DHT22;11074;48.596;9.238;2023-11-19T04:48:23;9.70;99.90
21823;DHT22;11074;48.596;9.238;2023-11-19T04:50:50;9.70;99.90
21823;DHT22;11074;48.596;9.238;2023-11-19T04:53:18;9.80;99.90
21823;DHT22;11074;48.596;9.238;2023-11-19T04:55:43;9.80;99.90
21823;DHT22;11074;48.596;9.238;2023-11-19T04:58:09;9.80;99.90
21823;DHT22;11074;48.596;9.238;2023-11-19T05:00:35;9.80;99.90
21823;DHT22;11074;48.596;9.238;2023-11-19T05:03:00;9.80;99.90
21823;DHT22;11074;48.596;9.238;2023-11-19T05:05:26;9.80;99.90
21823;DHT22;11074;48.596;9.238;2023-11-19T05:07:52;9.80;99.90
21823;DHT22;11074;48.596;9.238;2023-11-19T05:10:18;9.80;99.90
21823;DHT22;11074;48.596;9.238;2023-11-19T05:12:44;9.70;99.90
21823;DHT22;11074;48.596;9.238;2023-11-19T05:15:10;9.70;99.90
21823;DHT22;11074;48.596;9.238;2023-11-19T05:17:37;9.70;99.90
21823;DHT22;11074;48.596;9.238;2023-11-19T05:20:03;9.70;99.90
21823;DHT22;11074;48.596;9.238;2023-11-19T05:22:29;9.70;99.90
21823;DHT22;11074;48.596;9.238;2023-11-19T05:24:55;9.70;99.90
21823;DHT22;11074;48.596;9.238;2023-11-19T05:27:21;9.70;99.90
21823;DHT22;11074;48.596;9.238;2023-11-19T05:29:49;9.70;99.90
21823;DHT22;11074;48.596;9.238;2023-11-19T05:32:14;9.70;99.90
21823;DHT22;11074;48.596;9.238;2023-11-19T05:34:40;9.70;99.90
21823;DHT22;11074;48.596;9.238;2023-11-19T05:37:08;9.70;99.90
21823;DHT22;11074;48.596;9.238;2023-11-19T05:39:36;9.70;99.90
21823;DHT22;11074;48.596;9.238;2023-11-19T05:42:01;9.70;99.90
21823;DHT22;11074;48.596;9.238;2023-11-19T05:44:27;9.70;99.90
21823;DHT22;11074;48.596;9.238;2023-11-19T05:46:52;9.70;99.90
21823;DHT22;11074;48.596;9.238;2023-11-19T05:49:18;9.80;99.90
21823;DHT22;11074;48.596;9.238;2023-11-19T05:51:44;9.80;99.90
21823;DHT22;11074;48.596;9.238;2023-11-19T05:54:11;9.70;99.90
21823;DHT22;11074;48.596;9.238;2023-11-19T05:56:38;9.80;99.90
21823;DHT22;11074;48.596;9.238;2023-11-19T05:59:04;9.80;99.90
21823;DHT22;11074;48.596;9.238;2023-11-19T06:01:34;9.80;99.90
21823;DHT22;11074;48.596;9.238;2023-11-19T06:04:00;9.80;99.90
21823;DHT22;11074;48.596;9.238;2023-11-19T06:06:26;9.80;99.90
21823;DHT22;11074;48.596;9.238;2023-11-19T06:08:53;9.80;99.90
21823;DHT22;11074;48.596;9.238;2023-11-19T06:11:19;9.90;99.90
21823;DHT22;11074;48.596;9.238;2023-11-19T06:13:46;9.90;99.90
21823;DHT22;11074;48.596;9.238;2023-11-19T06:16:14;9.90;99.90
21823;DHT22;11074;48.596;9.238;2023-11-19T06:18:40;9.90;99.90
21823;DHT22;11074;48.596;9.238;2023-11-19T06:21:07;9.90;99.90
21823;DHT22;11074;48.596;9.238;2023-11-19T06:23:32;9.90;99.90
21823;DHT22;11074;48.596;9.238;2023-11-19T06:25:58;10.00;99.90
21823;DHT22;11074;48.596;9.238;2023-11-19T06:28:27;10.00;99.90
21823;DHT22;11074;48.596;9.238;2023-11-19T06:30:53;10.00;99.90
21823;DHT22;11074;48.596;9.238;2023-11-19T06:33:18;10.00;99.90
21823;DHT22;11074;48.596;9.238;2023-11-19T06:35:44;10.00;99.90
21823;DHT22;11074;48.596;9.238;2023-11-19T06:38:10;10.00;99.90
21823;DHT22;11074;48.596;9.238;2023-11-19T06:40:36;10.00;99.90
21823;DHT22;11074;48.596;9.238;2023-11-19T06:43:03;10.00;99.90
21823;DHT22;11074;48.596;9.238;2023-11-19T06:45:29;10.00;99.90
21823;DHT22;11074;48.596;9.238;2023-11-19T06:47:55;10.00;99.90
21823;DHT22;11074;48.596;9.238;2023-11-19T06:50:21;10.00;99.90
21823;DHT22;11074;48.596;9.238;2023-11-19T06:52:47;10.00;99.90
21823;DHT22;11074;48.596;9.238;2023-11-19T06:55:12;10.10;99.90
21823;DHT22;11074;48.596;9.238;2023-11-19T06:57:38;10.10;99.90
21823;DHT22;11074;48.596;9.238;2023-11-19T07:00:06;10.10;99.90
21823;DHT22;11074;48.596;9.238;2023-11-19T07:02:32;10.10;99.90
21823;DHT22;11074;48.596;9.238;2023-11-19T07:04:58;10.10;99.90
21823;DHT22;11074;48.596;9.238;2023-11-19T07:07:23;10.10;99.90
21823;DHT22;11074;48.596;9.238;2023-11-19T07:09:49;10.10;99.90
21823;DHT22;11074;48.596;9.238;2023-11-19T07:12:15;10.20;99.90
21823;DHT22;11074;48.596;9.238;2023-11-19T07:14:41;10.20;99.90
21823;DHT22;11074;48.596;9.238;2023-11-19T07:17:07;10.20;99.90
21823;DHT22;11074;48.596;9.238;2023-11-19T07:19:34;10.30;99.90
21823;DHT22;11074;48.596;9.238;2023-11-19T07:22:02;10.30;99.90
21823;DHT22;11074;48.596;9.238;2023-11-19T07:24:27;10.30;99.90
21823;DHT22;11074;48.596;9.238;2023-11-19T07:26:54;10.40;99.90
21823;DHT22;11074;48.596;9.238;2023-11-19T07:29:20;10.40;99.90
21823;DHT22;11074;48.596;9.238;2023-11-19T07:31:48;10.40;99.90
21823;DHT22;11074;48.596;9.238;2023-11-19T07:34:14;10.50;99.90
21823;DHT22;11074;48.596;9.238;2023-11-19T07:36:40;10.40;99.90
21823;DHT22;11074;48.596;9.238;2023-11-19T07:39:06;10.40;99.90
21823;DHT22;11074;48.596;9.238;2023-11-19T07:41:34;10.40;99.90
21823;DHT22;11074;48.596;9.238;2023-11-19T07:44:00;10.50;99.90
21823;DHT22;11074;48.596;9.238;2023-11-19T07:46:26;10.50;99.90
21823;DHT22;11074;48.596;9.238;2023-11-19T07:48:52;10.50;99.90
21823;DHT22;11074;48.596;9.238;2023-11-19T07:51:18;10.50;99.90
21823;DHT22;11074;48.596;9.238;2023-11-19T07:53:44;10.60;99.90
21823;DHT22;11074;48.596;9.238;2023-11-19T07:56:10;10.60;99.90
21823;DHT22;11074;48.596;9.238;2023-11-19T07:58:36;10.60;99.90
21823;DHT22;11074;48.596;9.238;2023-11-19T08:01:02;10.60;99.90
21823;DHT22;11074;48.596;9.238;2023-11-19T08:03:31;10.60;99.90
21823;DHT22;11074;48.596;9.238;2023-11-19T08:05:57;10.60;99.90
21823;DHT22;11074;48.596;9.238;2023-11-19T08:08:23;10.70;99.90
21823;DHT22;11074;48.596;9.238;2023-11-19T08:10:48;10.60;99.90
21823;DHT22;11074;48.596;9.238;2023-11-19T08:13:14;10.70;99.90
21823;DHT22;11074;48.596;9.238;2023-11-19T08:15:40;10.70;99.90
21823;DHT22;11074;48.596;9.238;2023-11-19T08:18:06;10.70;99.90
21823;DHT22;11074;48.596;9.238;2023-11-19T08:20:33;10.70;99.90
21823;DHT22;11074;48.596;9.238;2023-11-19T08:22:59;10.70;99.90
21823;DHT22;11074;48.596;9.238;2023-11-19T08:25:25;10.70;99.90
21823;DHT22;11074;48.596;9.238;2023-11-19T08:27:50;10.80;99.90
21823;DHT22;11074;48.596;9.238;2023-11-19T08:30:16;10.90;99.90
21823;DHT22;11074;48.596;9.238;2023-11-19T08:32:42;10.90;99.90
21823;DHT22;11074;48.596;9.238;2023-11-19T08:35:08;11.00;99.90
21823;DHT22;11074;48.596;9.238;2023-11-19T08:37:34;11.00;99.90
21823;DHT22;11074;48.596;9.238;2023-11-19T08:40:02;11.00;99.90
21823;DHT22;11074;48.596;9.238;2023-11-19T08:42:29;11.00;99.90
21823;DHT22;11074;48.596;9.238;2023-11-19T08:44:55;11.10;99.90
21823;DHT22;11074;48.596;9.238;2023-11-19T08:47:21;11.10;99.90
21823;DHT22;11074;48.596;9.238;2023-11-19T08:49:50;11.10;99.90
21823;DHT22;11074;48.596;9.238;2023-11-19T08:52:17;11.10;99.90
21823;DHT22;11074;48.596;9.238;2023-11-19T08:54:43;11.20;99.90
21823;DHT22;11074;48.596;9.238;2023-11-19T08:57:09;11.30;99.90
21823;DHT22;11074;48.596;9.238;2023-11-19T08:59:35;11.30;99.90
21823;DHT22;11074;48.596;9.238;2023-11-19T09:02:04;11.40;99.90
21823;DHT22;11074;48.596;9.238;2023-11-19T09:04:31;11.40;99.90
21823;DHT22;11074;48.596;9.238;2023-11-19T09:07:00;11.40;99.90
21823;DHT22;11074;48.596;9.238;2023-11-19T09:09:26;11.40;99.90
21823;DHT22;11074;48.596;9.238;2023-11-19T09:11:51;11.50;99.90
21823;DHT22;11074;48.596;9.238;2023-11-19T09:14:17;11.40;99.90
21823;DHT22;11074;48.596;9.238;2023-11-19T09:16:43;11.50;99.90
21823;DHT22;11074;48.596;9.238;2023-11-19T09:19:09;11.50;99.90
21823;DHT22;11074;48.596;9.238;2023-11-19T09:21:35;11.70;99.90
21823;DHT22;11074;48.596;9.238;2023-11-19T09:24:04;11.70;99.90
21823;DHT22;11074;48.596;9.238;2023-11-19T09:26:30;11.70;99.90
21823;DHT22;11074;48.596;9.238;2023-11-19T09:28:56;11.70;99.90
21823;DHT22;11074;48.596;9.238;2023-11-19T09:31:22;11.80;99.90
21823;DHT22;11074;48.596;9.238;2023-11-19T09:33:47;11.90;99.90
21823;DHT22;11074;48.596;9.238;2023-11-19T09:36:13;11.90;99.90
21823;DHT22;11074;48.596;9.238;2023-11-19T09:38:45;11.90;99.90
21823;DHT22;11074;48.596;9.238;2023-11-19T09:41:11;11.90;99.90
21823;DHT22;11074;48.596;9.238;2023-11-19T09:43:41;12.00;99.90
21823;DHT22;11074;48.596;9.238;2023-11-19T09:46:09;12.00;99.90
21823;DHT22;11074;48.596;9.238;2023-11-19T09:48:39;12.00;99.90
21823;DHT22;11074;48.596;9.238;2023-11-19T09:51:09;12.00;99.90
21823;DHT22;11074;48.596;9.238;2023-11-19T09:53:37;12.00;99.90
21823;DHT22;11074;48.596;9.238;2023-11-19T09:56:04;12.00;99.90
21823;DHT22;11074;48.596;9.238;2023-11-19T09:58:32;12.00;99.90
21823;DHT22;11074;48.596;9.238;2023-11-19T10:00:58;12.00;99.90
21823;DHT22;11074;48.596;9.238;2023-11-19T10:03:32;12.00;99.90
21823;DHT22;11074;48.596;9.238;2023-11-19T10:06:04;12.00;99.90
21823;DHT22;11074;48.596;9.238;2023-11-19T10:08:32;12.00;99.90
21823;DHT22;11074;48.596;9.238;2023-11-19T10:10:57;12.10;99.90
21823;DHT22;11074;48.596;9.238;2023-11-19T10:13:28;12.10;99.90
21823;DHT22;11074;48.596;9.238;2023-11-19T10:15:55;12.20;99.90
21823;DHT22;11074;48.596;9.238;2023-11-19T10:18:26;12.20;99.90
21823;DHT22;11074;48.596;9.238;2023-11-19T10:20:52;12.20;99.90
21823;DHT22;11074;48.596;9.238;2023-11-19T10:23:19;12.40;99.90
21823;DHT22;11074;48.596;9.238;2023-11-19T10:25:44;12.40;99.90
21823;DHT22;11074;48.596;9.238;2023-11-19T10:28:10;12.50;99.90
21823;DHT22;11074;48.596;9.238;2023-11-19T10:30:36;12.60;99.90
21823;DHT22;11074;48.596;9.238;2023-11-19T10:33:10;12.50;99.90
21823;DHT22;11074;48.596;9.238;2023-11-19T10:35:51;12.50;99.90
21823;DHT22;11074;48.596;9.238;2023-11-19T10:38:19;12.50;99.90
21823;DHT22;11074;48.596;9.238;2023-11-19T10:40:46;12.50;99.90
21823;DHT22;11074;48.596;9.238;2023-11-19T10:43:12;12.50;99.90
21823;DHT22;11074;48.596;9.238;2023-11-19T10:45:39;12.60;99.90
21823;DHT22;11074;48.596;9.238;2023-11-19T10:48:06;12.70;99.90
21823;DHT22;11074;48.596;9.238;2023-11-19T10:50:35;12.70;99.90
21823;DHT22;11074;48.596;9.238;2023-11-19T10:53:03;12.70;99.90
21823;DHT22;11074;48.596;9.238;2023-11-19T10:55:32;12.60;99.90
21823;DHT22;11074;48.596;9.238;2023-11-19T10:58:07;12.60;99.90
21823;DHT22;11074;48.596;9.238;2023-11-19T11:00:48;12.60;99.90
21823;DHT22;11074;48.596;9.238;2023-11-19T11:03:21;12.60;99.90
21823;DHT22;11074;48.596;9.238;2023-11-19T11:05:51;12.60;99.90
21823;DHT22;11074;48.596;9.238;2023-11-19T11:08:19;12.70;99.90
21823;DHT22;11074;48.596;9.238;2023-11-19T11:10:55;12.70;99.90
21823;DHT22;11074;48.596;9.238;2023-11-19T11:13:23;12.80;99.90
21823;DHT22;11074;48.596;9.238;2023-11-19T11:15:51;12.80;99.90
21823;DHT22;11074;48.596;9.238;2023-11-19T11:18:17;12.80;99.90
21823;DHT22;11074;48.596;9.238;2023-11-19T11:20:47;12.90;99.90
21823;DHT22;11074;48.596;9.238;2023-11-19T11:26:13;12.90;99.90
21823;DHT22;11074;48.596;9.238;2023-11-19T11:28:56;13.00;99.90
21823;DHT22;11074;48.596;9.238;2023-11-19T11:31:34;13.00;99.90
21823;DHT22;11074;48.596;9.238;2023-11-19T11:39:46;13.10;99.90
21823;DHT22;11074;48.596;9.238;2023-11-19T11:45:04;13.20;99.90
21823;DHT22;11074;48.596;9.238;2023-11-19T11:58:11;13.50;99.90
21823;DHT22;11074;48.596;9.238;2023-11-19T12:00:41;13.50;99.90
21823;DHT22;11074;48.596;9.238;2023-11-19T12:03:08;13.50;99.90
21823;DHT22;11074;48.596;9.238;2023-11-19T12:05:39;13.60;99.90
21823;DHT22;11074;48.596;9.238;2023-11-19T12:08:07;13.60;99.90
21823;DHT22;11074;48.596;9.238;2023-11-19T12:10:46;13.70;99.90
21823;DHT22;11074;48.596;9.238;2023-11-19T12:13:14;13.70;99.90
21823;DHT22;11074;48.596;9.238;2023-11-19T12:18:26;13.70;99.90
21823;DHT22;11074;48.596;9.238;2023-11-19T12:20:55;13.60;99.90
21823;DHT22;11074;48.596;9.238;2023-11-19T12:23:24;13.60;99.90
21823;DHT22;11074;48.596;9.238;2023-11-19T12:25:50;13.60;99.90
21823;DHT22;11074;48.596;9.238;2023-11-19T12:28:16;13.50;99.90
21823;DHT22;11074;48.596;9.238;2023-11-19T12:30:43;13.50;99.90
21823;DHT22;11074;48.596;9.238;2023-11-19T12:33:14;13.50;99.90
21823;DHT22;11074;48.596;9.238;2023-11-19T12:35:49;13.50;99.90
21823;DHT22;11074;48.596;9.238;2023-11-19T12:38:25;13.50;99.90
21823;DHT22;11074;48.596;9.238;2023-11-19T12:41:11;13.50;99.90
21823;DHT22;11074;48.596;9.238;2023-11-19T12:43:39;13.60;99.90
21823;DHT22;11074;48.596;9.238;2023-11-19T12:46:21;13.60;99.90
21823;DHT22;11074;48.596;9.238;2023-11-19T12:48:48;13.80;99.90
21823;DHT22;11074;48.596;9.238;2023-11-19T12:51:16;13.80;99.90
21823;DHT22;11074;48.596;9.238;2023-11-19T12:53:50;14.00;99.90
21823;DHT22;11074;48.596;9.238;2023-11-19T12:56:20;14.10;99.90
21823;DHT22;11074;48.596;9.238;2023-11-19T12:58:47;14.30;99.90
21823;DHT22;11074;48.596;9.238;2023-11-19T13:01:20;14.30;99.90
21823;DHT22;11074;48.596;9.238;2023-11-19T13:03:46;14.20;99.90
21823;DHT22;11074;48.596;9.238;2023-11-19T13:06:14;14.20;99.90
21823;DHT22;11074;48.596;9.238;2023-11-19T13:08:48;14.10;99.90
21823;DHT22;11074;48.596;9.238;2023-11-19T13:11:30;14.00;99.90
21823;DHT22;11074;48.596;9.238;2023-11-19T13:13:59;13.90;99.90
21823;DHT22;11074;48.596;9.238;2023-11-19T13:16:27;13.90;99.90
21823;DHT22;11074;48.596;9.238;2023-11-19T13:18:53;13.80;99.90
21823;DHT22;11074;48.596;9.238;2023-11-19T13:21:19;13.80;99.90
21823;DHT22;11074;48.596;9.238;2023-11-19T13:23:45;14.20;99.90
21823;DHT22;11074;48.596;9.238;2023-11-19T13:26:11;14.40;99.90
21823;DHT22;11074;48.596;9.238;2023-11-19T13:28:37;14.60;99.90
21823;DHT22;11074;48.596;9.238;2023-11-19T13:31:04;14.70;99.90
21823;DHT22;11074;48.596;9.238;2023-11-19T13:33:30;14.60;99.90
21823;DHT22;11074;48.596;9.238;2023-11-19T13:35:56;14.50;99.90
21823;DHT22;11074;48.596;9.238;2023-11-19T13:38:25;14.50;99.90
21823;DHT22;11074;48.596;9.238;2023-11-19T13:44:30;14.20;99.90
21823;DHT22;11074;48.596;9.238;2023-11-19T13:47:19;14.10;99.90
21823;DHT22;11074;48.596;9.238;2023-11-19T13:50:42;14.40;99.90
21823;DHT22;11074;48.596;9.238;2023-11-19T13:53:48;15.30;99.90
21823;DHT22;11074;48.596;9.238;2023-11-19T14:00:30;16.00;99.90
21823;DHT22;11074;48.596;9.238;2023-11-19T14:02:56;15.80;99.90
21823;DHT22;11074;48.596;9.238;2023-11-19T14:05:21;15.70;99.90
21823;DHT22;11074;48.596;9.238;2023-11-19T14:07:48;15.40;99.90
21823;DHT22;11074;48.596;9.238;2023-11-19T14:10:15;15.30;99.90
21823;DHT22;11074;48.596;9.238;2023-11-19T14:12:41;15.40;99.90
21823;DHT22;11074;48.596;9.238;2023-11-19T14:15:08;15.50;99.90
21823;DHT22;11074;48.596;9.238;2023-11-19T14:17:35;15.40;99.90
21823;DHT22;11074;48.596;9.238;2023-11-19T14:20:05;15.20;99.90
21823;DHT22;11074;48.596;9.238;2023-11-19T14:22:43;15.00;99.90
21823;DHT22;11074;48.596;9.238;2023-11-19T14:25:10;14.90;99.90
21823;DHT22;11074;48.596;9.238;2023-11-19T14:27:41;14.70;99.90
21823;DHT22;11074;48.596;9.238;2023-11-19T14:30:09;14.50;99.90
21823;DHT22;11074;48.596;9.238;2023-11-19T14:32:36;14.40;99.90
21823;DHT22;11074;48.596;9.238;2023-11-19T14:35:04;14.30;99.90
21823;DHT22;11074;48.596;9.238;2023-11-19T14:37:30;14.30;99.90
21823;DHT22;11074;48.596;9.238;2023-11-19T14:39:56;14.10;99.90
21823;DHT22;11074;48.596;9.238;2023-11-19T14:42:23;14.00;99.90
21823;DHT22;11074;48.596;9.238;2023-11-19T14:44:50;13.90;99.90
21823;DHT22;11074;48.596;9.238;2023-11-19T14:47:22;13.90;99.90
21823;DHT22;11074;48.596;9.238;2023-11-19T14:49:48;13.80;99.90
21823;DHT22;11074;48.596;9.238;2023-11-19T14:52:14;13.70;99.90
21823;DHT22;11074;48.596;9.238;2023-11-19T14:54:40;13.70;99.90
21823;DHT22;11074;48.596;9.238;2023-11-19T14:57:06;13.60;99.90
21823;DHT22;11074;48.596;9.238;2023-11-19T14:59:36;13.60;99.90
21823;DHT22;11074;48.596;9.238;2023-11-19T15:02:02;13.60;99.90
21823;DHT22;11074;48.596;9.238;2023-11-19T15:04:29;13.50;99.90
21823;DHT22;11074;48.596;9.238;2023-11-19T15:06:59;13.50;99.90
21823;DHT22;11074;48.596;9.238;2023-11-19T15:09:25;13.50;99.90
21823;DHT22;11074;48.596;9.238;2023-11-19T15:11:53;13.40;99.90
21823;DHT22;11074;48.596;9.238;2023-11-19T15:14:19;13.50;99.90
21823;DHT22;11074;48.596;9.238;2023-11-19T15:16:46;13.40;99.90
21823;DHT22;11074;48.596;9.238;2023-11-19T15:19:13;13.40;99.90
21823;DHT22;11074;48.596;9.238;2023-11-19T15:21:42;13.30;99.90
21823;DHT22;11074;48.596;9.238;2023-11-19T15:24:11;13.30;99.90
21823;DHT22;11074;48.596;9.238;2023-11-19T15:26:38;13.30;99.90
21823;DHT22;11074;48.596;9.238;2023-11-19T15:29:04;13.30;99.90
21823;DHT22;11074;48.596;9.238;2023-11-19T15:31:31;13.20;99.90
21823;DHT22;11074;48.596;9.238;2023-11-19T15:33:57;13.20;99.90
21823;DHT22;11074;48.596;9.238;2023-11-19T15:36:26;13.20;99.90
21823;DHT22;11074;48.596;9.238;2023-11-19T15:38:57;13.20;99.90
21823;DHT22;11074;48.596;9.238;2023-11-19T15:41:26;13.20;99.90
21823;DHT22;11074;48.596;9.238;2023-11-19T15:43:53;13.10;99.90
21823;DHT22;11074;48.596;9.238;2023-11-19T15:46:19;13.10;99.90
21823;DHT22;11074;48.596;9.238;2023-11-19T15:48:45;13.10;99.90
21823;DHT22;11074;48.596;9.238;2023-11-19T15:51:11;13.00;99.90
21823;DHT22;11074;48.596;9.238;2023-11-19T15:53:37;13.00;99.90
21823;DHT22;11074;48.596;9.238;2023-11-19T15:56:04;13.00;99.90
21823;DHT22;11074;48.596;9.238;2023-11-19T15:58:30;12.90;99.90
21823;DHT22;11074;48.596;9.238;2023-11-19T16:00:56;12.90;99.90
21823;DHT22;11074;48.596;9.238;2023-11-19T16:03:22;12.90;99.90
21823;DHT22;11074;48.596;9.238;2023-11-19T16:05:48;12.90;99.90
21823;DHT22;11074;48.596;9.238;2023-11-19T16:08:17;12.80;99.90
21823;DHT22;11074;48.596;9.238;2023-11-19T16:10:42;12.80;99.90
21823;DHT22;11074;48.596;9.238;2023-11-19T16:13:10;12.80;99.90
21823;DHT22;11074;48.596;9.238;2023-11-19T16:15:36;12.70;99.90